createdAt,value
2022-11-26T00:02:39.415Z,7.09
2022-11-26T00:08:06.459Z,5.36
2022-11-26T00:13:37.348Z,5.72
2022-11-26T00:19:01.415Z,7.69
2022-11-26T00:24:25.332Z,5.40
2022-11-26T00:29:49.606Z,7.12
2022-11-26T00:35:16.083Z,6.90
2022-11-26T00:40:40.328Z,5.10
2022-11-26T00:46:07.355Z,4.09
2022-11-26T00:51:35.421Z,3.99
2022-11-26T00:56:58.946Z,3.92
2022-11-26T01:02:25.849Z,4.35
2022-11-26T01:07:50.420Z,4.29
2022-11-26T01:13:14.985Z,3.90
2022-11-26T01:18:36.349Z,4.43
2022-11-26T01:23:57.852Z,3.73
2022-11-26T01:29:19.528Z,3.69
2022-11-26T01:34:42.902Z,3.15
2022-11-26T01:40:07.087Z,3.77
2022-11-26T01:45:49.697Z,3.98
2022-11-26T01:51:15.294Z,3.39
2022-11-26T01:56:38.675Z,3.90
2022-11-26T02:02:05.924Z,3.97
2022-11-26T02:07:30.437Z,3.65
2022-11-26T02:12:55.623Z,3.73
2022-11-26T02:18:17.953Z,4.21
2022-11-26T02:23:41.961Z,3.71
2022-11-26T02:29:27.340Z,4.12
2022-11-26T02:35:22.668Z,3.53
2022-11-26T02:40:49.380Z,4.19
2022-11-26T02:46:13.691Z,3.91
2022-11-26T02:51:39.452Z,3.39
2022-11-26T02:57:05.283Z,3.70
2022-11-26T03:02:28.654Z,3.60
2022-11-26T03:07:55.433Z,4.08
2022-11-26T03:13:20.292Z,3.73
2022-11-26T03:18:43.386Z,4.03
2022-11-26T03:24:06.438Z,3.76
2022-11-26T03:29:31.384Z,3.20
2022-11-26T03:34:57.921Z,4.03
2022-11-26T03:40:25.075Z,3.67
2022-11-26T03:45:52.211Z,4.30
2022-11-26T03:51:16.152Z,4.02
2022-11-26T03:56:41.481Z,3.78
2022-11-26T04:02:08.345Z,4.14
2022-11-26T04:07:35.611Z,4.03
2022-11-26T04:12:58.977Z,3.57
2022-11-26T04:18:24.065Z,4.08
2022-11-26T04:23:48.326Z,3.84
2022-11-26T04:29:12.486Z,3.91
2022-11-26T04:34:36.269Z,3.68
2022-11-26T04:40:02.865Z,3.22
2022-11-26T04:45:29.856Z,2.91
2022-11-26T04:50:55.056Z,3.46
2022-11-26T04:56:19.413Z,3.52
2022-11-26T05:01:45.653Z,3.01
2022-11-26T05:07:11.571Z,3.25
2022-11-26T05:12:33.002Z,3.02
2022-11-26T05:17:54.077Z,2.97
2022-11-26T05:23:19.600Z,2.76
2022-11-26T05:28:45.615Z,3.20
2022-11-26T05:34:09.918Z,2.93
2022-11-26T05:39:35.325Z,3.23
2022-11-26T05:45:02.421Z,3.32
2022-11-26T05:50:30.409Z,3.37
2022-11-26T05:55:55.805Z,3.36
2022-11-26T06:01:18.336Z,3.84
2022-11-26T06:06:40.677Z,3.23
2022-11-26T06:12:07.469Z,3.02
2022-11-26T06:17:35.112Z,3.76
2022-11-26T06:22:59.477Z,3.21
2022-11-26T06:28:24.083Z,3.52
2022-11-26T06:33:49.438Z,3.70
2022-11-26T06:39:13.797Z,3.60
2022-11-26T06:44:40.175Z,3.33
2022-11-26T06:50:10.726Z,3.12
2022-11-26T06:55:34.048Z,2.96
2022-11-26T07:00:59.767Z,3.34
2022-11-26T07:06:25.334Z,3.72
2022-11-26T07:11:46.814Z,4.28
2022-11-26T07:17:09.846Z,3.56
2022-11-26T07:22:36.213Z,4.10
2022-11-26T07:28:02.209Z,4.06
2022-11-26T07:33:30.143Z,4.41
2022-11-26T07:38:57.319Z,3.64
2022-11-26T07:44:23.777Z,3.67
2022-11-26T07:49:48.764Z,4.14
2022-11-26T07:55:13.380Z,3.82
2022-11-26T08:00:39.912Z,4.29
2022-11-26T08:06:07.462Z,5.00
2022-11-26T08:11:34.742Z,5.38
2022-11-26T08:17:02.396Z,4.48
2022-11-26T08:22:26.709Z,4.05
2022-11-26T08:27:48.085Z,4.22
2022-11-26T08:33:09.240Z,4.87
2022-11-26T08:38:33.528Z,4.31
2022-11-26T08:44:07.234Z,5.24
2022-11-26T08:49:21.163Z,5.83
2022-11-26T08:54:49.681Z,5.01
2022-11-26T09:00:15.352Z,5.19
2022-11-26T09:05:42.462Z,4.82
2022-11-26T09:11:10.401Z,5.00
2022-11-26T09:16:42.280Z,4.71
2022-11-26T09:22:08.626Z,4.76
2022-11-26T09:27:36.307Z,4.90
2022-11-26T09:33:02.292Z,5.27
2022-11-26T09:38:25.743Z,6.97
2022-11-26T09:43:53.374Z,6.64
2022-11-26T09:49:30.463Z,5.86
2022-11-26T09:54:54.031Z,4.73
2022-11-26T10:00:20.625Z,5.06
2022-11-26T10:05:46.288Z,5.01
2022-11-26T10:11:13.625Z,4.40
2022-11-26T10:16:40.003Z,5.16
2022-11-26T10:22:09.661Z,4.60
2022-11-26T10:27:37.206Z,4.83
2022-11-26T10:33:03.406Z,4.57
2022-11-26T10:38:26.573Z,5.16
2022-11-26T10:43:51.628Z,5.66
2022-11-26T10:49:14.045Z,6.57
2022-11-26T10:54:41.881Z,6.93
2022-11-26T11:00:08.517Z,7.31
2022-11-26T11:05:44.408Z,7.87
2022-11-26T11:11:08.562Z,7.46
2022-11-26T11:16:33.062Z,6.78
2022-11-26T11:21:58.254Z,6.21
2022-11-26T11:27:23.075Z,6.37
2022-11-26T11:32:46.163Z,7.18
2022-11-26T11:38:14.817Z,7.14
2022-11-26T11:43:44.917Z,7.58
2022-11-26T11:49:09.545Z,8.00
2022-11-26T11:54:32.964Z,8.07
2022-11-26T11:59:59.157Z,7.86
2022-11-26T12:05:27.625Z,8.50
2022-11-26T12:11:09.105Z,7.88
2022-11-26T12:16:41.877Z,7.82
2022-11-26T12:22:08.336Z,7.57
2022-11-26T12:27:30.973Z,8.46
2022-11-26T12:32:53.727Z,8.21
2022-11-26T12:38:17.736Z,8.27
2022-11-26T12:43:45.910Z,8.01
2022-11-26T12:49:08.350Z,8.55
2022-11-26T12:54:36.860Z,8.00
2022-11-26T13:00:01.070Z,8.52
2022-11-26T13:05:28.189Z,8.70
2022-11-26T13:10:55.506Z,9.50
2022-11-26T13:16:24.113Z,8.92
2022-11-26T13:21:48.255Z,8.98
2022-11-26T13:27:28.437Z,9.28
2022-11-26T13:33:02.683Z,9.31
2022-11-26T13:38:46.506Z,9.84
2022-11-26T13:44:19.924Z,8.98
2022-11-26T13:50:19.280Z,9.18
2022-11-26T13:55:43.499Z,9.66
2022-11-26T14:01:09.734Z,8.71
2022-11-26T14:06:46.078Z,8.64
2022-11-26T14:12:37.282Z,7.46
2022-11-26T14:18:33.268Z,8.09
2022-11-26T14:24:13.007Z,7.14
2022-11-26T14:29:40.460Z,6.89
2022-11-26T14:35:07.309Z,6.84
2022-11-26T14:40:37.364Z,6.76
2022-11-26T14:46:04.985Z,5.59
2022-11-26T14:51:31.058Z,5.84
2022-11-26T14:56:52.264Z,5.52
2022-11-26T15:02:14.420Z,5.43
2022-11-26T15:07:40.602Z,5.12
2022-11-26T15:13:07.539Z,5.32
2022-11-26T15:18:31.291Z,5.35
2022-11-26T15:23:55.064Z,5.25
2022-11-26T15:29:16.931Z,5.39
2022-11-26T15:34:43.331Z,4.79
2022-11-26T15:40:09.936Z,4.88
2022-11-26T15:45:40.079Z,5.27
2022-11-26T15:51:05.768Z,5.53
2022-11-26T15:56:28.980Z,5.79
2022-11-26T16:01:54.713Z,5.49
2022-11-26T16:07:24.473Z,5.31
2022-11-26T16:12:49.415Z,6.30
2022-11-26T16:18:37.369Z,5.61
2022-11-26T16:24:01.700Z,5.64
2022-11-26T16:29:32.088Z,5.00
2022-11-26T16:34:58.795Z,5.79
2022-11-26T16:40:28.215Z,6.07
2022-11-26T16:45:52.954Z,5.48
2022-11-26T16:51:14.310Z,5.33
2022-11-26T16:56:38.565Z,5.80
2022-11-26T17:02:00.153Z,6.52
2022-11-26T17:07:23.880Z,6.33
2022-11-26T17:12:50.874Z,6.62
2022-11-26T17:18:16.137Z,7.77
2022-11-26T17:23:39.229Z,5.97
2022-11-26T17:29:04.406Z,5.96
2022-11-26T17:34:35.035Z,7.32
2022-11-26T17:40:01.701Z,6.17
2022-11-26T17:45:31.540Z,5.96
2022-11-26T17:50:55.428Z,5.92
2022-11-26T17:56:19.466Z,7.18
2022-11-26T18:01:50.264Z,7.01
2022-11-26T18:07:15.840Z,6.21
2022-11-26T18:12:41.025Z,5.86
2022-11-26T18:18:07.945Z,5.53
2022-11-26T18:23:35.252Z,5.87
2022-11-26T18:28:57.028Z,5.91
2022-11-26T18:34:24.724Z,5.75
2022-11-26T18:39:51.355Z,6.20
2022-11-26T18:45:18.199Z,5.52
2022-11-26T18:50:44.577Z,4.66
2022-11-26T18:56:16.556Z,5.03
2022-11-26T19:01:42.669Z,5.83
2022-11-26T19:07:10.569Z,5.77
2022-11-26T19:12:37.066Z,4.22
2022-11-26T19:18:04.032Z,4.28
2022-11-26T19:23:31.469Z,4.12
2022-11-26T19:28:57.415Z,4.26
2022-11-26T19:34:22.039Z,4.66
2022-11-26T19:39:48.187Z,5.46
2022-11-26T19:45:15.673Z,9.20
2022-11-26T19:50:41.016Z,5.50
2022-11-26T19:56:12.765Z,5.23
2022-11-26T20:01:38.562Z,4.81
2022-11-26T20:07:01.004Z,5.08
2022-11-26T20:12:26.939Z,5.36
2022-11-26T20:17:53.575Z,5.52
2022-11-26T20:23:20.504Z,5.68
2022-11-26T20:28:47.749Z,4.96
2022-11-26T20:34:14.816Z,6.57
2022-11-26T20:39:40.102Z,6.31
2022-11-26T20:45:07.403Z,5.54
2022-11-26T20:50:33.752Z,5.10
2022-11-26T20:55:59.714Z,6.06
2022-11-26T21:01:25.771Z,5.91
2022-11-26T21:06:52.879Z,5.56
2022-11-26T21:12:18.836Z,6.41
2022-11-26T21:17:43.799Z,6.02
2022-11-26T21:23:08.891Z,6.24
2022-11-26T21:28:33.795Z,6.63
2022-11-26T21:33:58.855Z,5.55
2022-11-26T21:39:27.056Z,6.16
2022-11-26T21:44:52.157Z,5.48
2022-11-26T21:50:16.395Z,5.72
2022-11-26T21:55:44.939Z,5.45
2022-11-26T22:01:06.252Z,5.65
2022-11-26T22:06:28.122Z,5.64
2022-11-26T22:11:48.986Z,5.97
2022-11-26T22:17:10.351Z,5.78
2022-11-26T22:22:36.043Z,5.96
2022-11-26T22:28:01.123Z,7.18
2022-11-26T22:33:28.711Z,8.52
2022-11-26T22:38:55.617Z,7.32
2022-11-26T22:44:21.414Z,6.18
2022-11-26T22:49:49.137Z,6.15
2022-11-26T22:55:15.204Z,5.95
2022-11-26T23:00:36.192Z,6.15
2022-11-26T23:06:03.521Z,6.35
2022-11-26T23:11:30.190Z,7.71
2022-11-26T23:16:56.548Z,7.88
2022-11-26T23:22:24.187Z,4.70
2022-11-26T23:27:51.167Z,3.79
2022-11-26T23:33:18.136Z,3.51
2022-11-26T23:38:39.251Z,3.26
2022-11-26T23:44:06.492Z,3.02
2022-11-26T23:49:32.476Z,3.18
2022-11-26T23:54:59.868Z,3.24
